createdAt,value
2022-12-08T00:00:24.623Z,-0.40
2022-12-08T00:02:51.602Z,-0.60
2022-12-08T00:05:36.888Z,-0.50
2022-12-08T00:08:22.004Z,-0.50
2022-12-08T00:10:49.966Z,-0.60
2022-12-08T00:13:16.861Z,-0.60
2022-12-08T00:15:43.496Z,-0.60
2022-12-08T00:18:10.133Z,-0.60
2022-12-08T00:20:36.753Z,-0.60
2022-12-08T00:23:04.346Z,-0.60
2022-12-08T00:25:31.705Z,-0.60
2022-12-08T00:27:58.306Z,-0.60
2022-12-08T00:30:24.982Z,-0.60
2022-12-08T00:32:51.638Z,-0.50
2022-12-08T00:35:18.330Z,-0.60
2022-12-08T00:37:45.901Z,-0.50
2022-12-08T00:40:12.689Z,-0.50
2022-12-08T00:42:39.400Z,-0.50
2022-12-08T00:45:06.337Z,-0.50
2022-12-08T00:47:33.089Z,-0.50
2022-12-08T00:49:59.728Z,-0.60
2022-12-08T00:52:26.442Z,-0.60
2022-12-08T00:54:53.086Z,-0.70
2022-12-08T00:57:19.725Z,-0.70
2022-12-08T00:59:46.383Z,-0.80
2022-12-08T01:02:13.096Z,-0.80
2022-12-08T01:04:39.791Z,-0.70
2022-12-08T01:07:06.474Z,-0.60
2022-12-08T01:09:33.154Z,0.70
2022-12-08T01:11:59.912Z,-0.50
2022-12-08T01:14:26.674Z,-0.50
2022-12-08T01:16:53.431Z,-0.60
2022-12-08T01:19:20.082Z,-0.40
2022-12-08T01:21:46.803Z,-0.40
2022-12-08T01:24:14.719Z,-0.40
2022-12-08T01:26:41.532Z,-0.50
2022-12-08T01:29:08.458Z,-0.50
2022-12-08T01:31:35.116Z,-0.60
2022-12-08T01:34:01.809Z,-0.70
2022-12-08T01:36:29.679Z,-0.70
2022-12-08T01:38:57.413Z,-0.80
2022-12-08T01:41:25.184Z,-0.80
2022-12-08T01:44:02.457Z,-0.90
2022-12-08T01:46:30.315Z,-1.00
2022-12-08T01:49:01.451Z,-1.10
2022-12-08T01:51:28.514Z,-1.10
2022-12-08T01:53:55.223Z,-1.10
2022-12-08T01:56:27.320Z,-1.10
2022-12-08T01:58:54.910Z,-1.20
2022-12-08T02:01:21.917Z,-1.20
2022-12-08T02:04:02.069Z,-1.20
2022-12-08T02:06:30.542Z,-1.20
2022-12-08T02:08:58.066Z,-1.20
2022-12-08T02:11:24.744Z,-1.20
2022-12-08T02:13:52.967Z,-1.20
2022-12-08T02:16:28.863Z,-1.20
2022-12-08T02:19:29.705Z,-1.30
2022-12-08T02:22:09.482Z,-1.30
2022-12-08T02:24:48.507Z,-1.40
2022-12-08T02:27:34.069Z,-1.40
2022-12-08T02:30:03.969Z,-1.40
2022-12-08T02:32:30.765Z,-1.50
2022-12-08T02:35:00.525Z,-1.50
2022-12-08T02:37:32.571Z,-1.50
2022-12-08T02:40:02.673Z,-1.50
2022-12-08T02:42:47.080Z,-1.60
2022-12-08T02:45:17.225Z,-1.60
2022-12-08T02:47:44.200Z,-0.50
2022-12-08T02:50:10.954Z,-1.80
2022-12-08T02:52:42.033Z,-1.80
2022-12-08T02:55:11.257Z,-1.80
2022-12-08T02:57:38.000Z,-1.80
2022-12-08T03:00:21.601Z,-1.80
2022-12-08T03:02:56.629Z,-1.70
2022-12-08T03:05:23.376Z,-1.70
2022-12-08T03:08:07.287Z,-1.70
2022-12-08T03:10:41.064Z,-1.70
2022-12-08T03:13:13.261Z,-1.80
2022-12-08T03:15:41.045Z,-1.90
2022-12-08T03:18:10.997Z,-1.70
2022-12-08T03:20:38.407Z,-1.70
2022-12-08T03:23:06.034Z,-1.70
2022-12-08T03:25:37.003Z,-1.80
2022-12-08T03:28:04.591Z,-1.70
2022-12-08T03:30:32.370Z,-0.60
2022-12-08T03:33:02.950Z,-1.00
2022-12-08T03:35:31.164Z,-1.80
2022-12-08T03:38:05.746Z,-1.90
2022-12-08T03:40:32.400Z,-1.90
2022-12-08T03:42:59.065Z,-1.90
2022-12-08T03:45:26.136Z,-1.90
2022-12-08T03:47:52.737Z,-2.00
2022-12-08T03:50:19.394Z,-2.00
2022-12-08T03:52:46.407Z,-2.00
2022-12-08T03:55:13.115Z,-2.00
2022-12-08T03:57:39.810Z,-2.00
2022-12-08T04:00:08.313Z,-2.00
2022-12-08T04:02:35.011Z,-2.10
2022-12-08T04:05:01.639Z,-2.10
2022-12-08T04:07:28.325Z,-2.20
2022-12-08T04:09:54.913Z,-2.20
2022-12-08T04:12:21.697Z,-2.20
2022-12-08T04:14:48.347Z,-2.20
2022-12-08T04:17:15.009Z,-2.20
2022-12-08T04:19:41.618Z,-2.30
2022-12-08T04:22:08.303Z,-2.40
2022-12-08T04:24:34.933Z,-2.40
2022-12-08T04:27:01.583Z,-2.40
2022-12-08T04:29:28.164Z,-2.30
2022-12-08T04:31:54.843Z,-2.20
2022-12-08T04:34:21.526Z,-2.10
2022-12-08T04:36:48.179Z,-2.00
2022-12-08T04:39:14.822Z,-2.00
2022-12-08T04:41:41.460Z,-2.00
2022-12-08T04:44:08.195Z,-2.10
2022-12-08T04:46:38.948Z,-2.10
2022-12-08T04:49:08.326Z,-2.10
2022-12-08T04:51:34.970Z,-2.10
2022-12-08T04:54:01.564Z,-2.10
2022-12-08T04:56:28.226Z,-2.20
2022-12-08T04:58:54.901Z,-2.20
2022-12-08T05:01:21.705Z,-2.20
2022-12-08T05:03:48.393Z,-2.20
2022-12-08T05:06:15.151Z,-2.20
2022-12-08T05:08:42.674Z,-2.20
2022-12-08T05:11:10.174Z,-2.20
2022-12-08T05:13:36.801Z,-2.40
2022-12-08T05:16:07.621Z,-2.40
2022-12-08T05:18:34.833Z,-2.50
2022-12-08T05:21:01.899Z,-2.50
2022-12-08T05:23:28.563Z,-2.50
2022-12-08T05:25:55.331Z,-2.60
2022-12-08T05:31:08.658Z,-2.50
2022-12-08T05:33:35.319Z,-2.50
2022-12-08T05:36:01.938Z,-2.50
2022-12-08T05:38:29.477Z,-2.50
2022-12-08T05:40:56.182Z,-2.60
2022-12-08T05:43:22.788Z,-2.60
2022-12-08T05:45:49.506Z,-2.70
2022-12-08T05:48:16.498Z,-2.70
2022-12-08T05:50:46.974Z,-2.80
2022-12-08T05:53:14.005Z,-2.80
2022-12-08T05:55:40.694Z,-2.80
2022-12-08T05:58:09.828Z,-2.90
2022-12-08T06:00:36.517Z,-2.90
2022-12-08T06:03:03.238Z,-3.00
2022-12-08T06:05:31.934Z,-3.00
2022-12-08T06:07:58.553Z,-3.10
2022-12-08T06:10:25.277Z,-3.00
2022-12-08T06:12:52.021Z,-3.00
2022-12-08T06:15:18.834Z,-2.90
2022-12-08T06:17:45.513Z,-2.90
2022-12-08T06:20:12.211Z,-3.00
2022-12-08T06:22:39.218Z,-3.00
2022-12-08T06:25:09.559Z,-3.20
2022-12-08T06:27:36.991Z,-3.20
2022-12-08T06:30:04.253Z,-3.20
2022-12-08T06:32:31.173Z,-3.30
2022-12-08T06:34:57.930Z,-3.30
2022-12-08T06:37:24.750Z,-3.30
2022-12-08T06:39:51.921Z,-2.10
2022-12-08T06:42:37.359Z,-3.20
2022-12-08T06:45:04.222Z,-3.30
2022-12-08T06:47:30.819Z,-3.20
2022-12-08T06:49:57.456Z,-2.60
2022-12-08T06:52:24.063Z,-3.30
2022-12-08T06:54:50.709Z,-3.30
2022-12-08T06:57:18.765Z,-3.20
2022-12-08T06:59:45.420Z,-3.20
2022-12-08T07:02:12.158Z,-3.10
2022-12-08T07:04:38.794Z,-2.90
2022-12-08T07:07:05.421Z,-3.00
2022-12-08T07:09:32.059Z,-3.00
2022-12-08T07:11:58.715Z,-2.00
2022-12-08T07:14:25.333Z,-2.90
2022-12-08T07:16:52.351Z,-2.90
2022-12-08T07:19:19.226Z,-2.80
2022-12-08T07:21:45.892Z,-2.80
2022-12-08T07:24:13.073Z,-2.90
2022-12-08T07:26:40.269Z,-2.90
2022-12-08T07:29:07.148Z,-2.90
2022-12-08T07:31:34.043Z,-3.00
2022-12-08T07:34:00.740Z,-2.90
2022-12-08T07:36:27.654Z,-2.90
2022-12-08T07:38:54.383Z,-2.90
2022-12-08T07:41:23.605Z,-2.90
2022-12-08T07:43:50.636Z,-2.90
2022-12-08T07:46:18.897Z,-2.80
2022-12-08T07:48:46.228Z,-2.70
2022-12-08T07:51:14.049Z,-2.60
2022-12-08T07:53:42.856Z,-2.70
2022-12-08T07:56:10.466Z,-2.70
2022-12-08T07:58:37.230Z,-2.70
2022-12-08T08:01:04.228Z,-2.60
2022-12-08T08:03:31.283Z,-2.60
2022-12-08T08:06:04.435Z,-2.70
2022-12-08T08:08:31.411Z,-2.60
2022-12-08T08:10:58.309Z,-2.50
2022-12-08T08:13:25.113Z,-2.50
2022-12-08T08:15:51.929Z,-2.40
2022-12-08T08:18:18.696Z,-2.20
2022-12-08T08:20:45.405Z,-2.10
2022-12-08T08:23:12.076Z,-2.00
2022-12-08T08:25:38.786Z,-1.90
2022-12-08T08:28:05.509Z,-1.80
2022-12-08T08:30:32.092Z,-1.70
2022-12-08T08:32:58.739Z,-1.60
2022-12-08T08:35:25.719Z,-1.50
2022-12-08T08:37:52.436Z,-1.40
2022-12-08T08:40:19.097Z,-1.40
2022-12-08T08:42:45.719Z,-1.30
2022-12-08T08:45:12.363Z,-1.20
2022-12-08T08:47:39.035Z,-1.10
2022-12-08T08:50:06.413Z,-1.10
2022-12-08T08:52:33.292Z,-1.10
2022-12-08T08:54:59.934Z,-1.10
2022-12-08T08:57:26.652Z,-1.00
2022-12-08T08:59:53.702Z,-1.00
2022-12-08T09:02:21.063Z,-0.90
2022-12-08T09:04:47.827Z,-0.90
2022-12-08T09:07:14.829Z,-0.90
2022-12-08T09:09:41.479Z,-0.90
2022-12-08T09:12:08.632Z,-0.90
2022-12-08T09:14:35.379Z,-0.80
2022-12-08T09:17:02.116Z,-0.70
2022-12-08T09:19:28.842Z,-0.70
2022-12-08T09:21:55.614Z,-0.70
2022-12-08T09:24:23.161Z,-0.70
2022-12-08T09:26:50.072Z,0.50
2022-12-08T09:29:17.730Z,-0.60
2022-12-08T09:31:44.550Z,-0.50
2022-12-08T09:34:12.058Z,-0.40
2022-12-08T09:36:38.835Z,-0.30
2022-12-08T09:39:05.471Z,-0.30
2022-12-08T09:41:41.837Z,-0.10
2022-12-08T09:44:14.602Z,-0.30
2022-12-08T09:46:42.079Z,-0.30
2022-12-08T09:49:13.515Z,-0.20
2022-12-08T09:51:41.887Z,-0.20
2022-12-08T09:54:20.311Z,-0.10
2022-12-08T09:56:47.450Z,0.00
2022-12-08T09:59:26.251Z,0.00
2022-12-08T10:01:53.207Z,0.10
2022-12-08T10:04:23.110Z,0.10
2022-12-08T10:06:49.744Z,0.10
2022-12-08T10:09:22.660Z,0.20
2022-12-08T10:11:55.695Z,0.20
2022-12-08T10:14:25.468Z,2.10
2022-12-08T10:16:55.045Z,0.20
2022-12-08T10:19:23.219Z,0.30
2022-12-08T10:21:49.914Z,0.40
2022-12-08T10:24:22.332Z,0.40
2022-12-08T10:26:49.266Z,0.50
2022-12-08T10:29:15.970Z,0.50
2022-12-08T10:31:42.720Z,0.60
2022-12-08T10:34:26.194Z,0.60
2022-12-08T10:36:54.685Z,0.70
2022-12-08T10:39:30.528Z,0.70
2022-12-08T10:42:08.733Z,0.80
2022-12-08T10:44:49.344Z,0.80
2022-12-08T10:47:16.263Z,0.80
2022-12-08T10:49:42.880Z,1.20
2022-12-08T10:52:21.703Z,0.90
2022-12-08T10:54:52.109Z,0.90
2022-12-08T10:57:23.572Z,1.00
2022-12-08T10:59:50.141Z,1.10
2022-12-08T11:02:19.144Z,1.10
2022-12-08T11:04:46.715Z,1.20
2022-12-08T11:07:20.375Z,1.30
2022-12-08T11:09:49.107Z,1.40
2022-12-08T11:12:16.642Z,1.40
2022-12-08T11:14:43.403Z,1.50
2022-12-08T11:17:12.118Z,2.00
2022-12-08T11:19:43.545Z,1.50
2022-12-08T11:22:39.842Z,1.60
2022-12-08T11:25:17.635Z,1.60
2022-12-08T11:27:45.831Z,1.70
2022-12-08T11:30:14.977Z,1.70
2022-12-08T11:32:44.617Z,1.70
2022-12-08T11:35:18.829Z,1.80
2022-12-08T11:37:45.774Z,1.90
2022-12-08T11:40:21.855Z,1.90
2022-12-08T11:42:48.675Z,2.00
2022-12-08T11:45:19.538Z,2.00
2022-12-08T11:47:55.808Z,2.00
2022-12-08T11:50:26.557Z,2.10
2022-12-08T11:52:53.250Z,2.20
2022-12-08T11:55:37.183Z,2.30
2022-12-08T11:58:21.482Z,2.30
2022-12-08T12:00:48.864Z,2.20
2022-12-08T12:03:18.699Z,2.20
2022-12-08T12:06:12.610Z,2.20
2022-12-08T12:08:35.191Z,2.20
2022-12-08T12:11:36.711Z,2.20
2022-12-08T12:14:14.424Z,2.10
2022-12-08T12:17:01.887Z,2.20
2022-12-08T12:19:30.823Z,2.20
2022-12-08T12:21:58.178Z,2.30
2022-12-08T12:24:35.736Z,2.40
2022-12-08T12:27:21.495Z,2.40
2022-12-08T12:29:55.592Z,2.60
2022-12-08T12:32:23.578Z,2.70
2022-12-08T12:34:54.420Z,2.80
2022-12-08T12:37:24.097Z,3.10
2022-12-08T12:39:55.874Z,2.90
2022-12-08T12:42:54.977Z,2.90
2022-12-08T12:45:21.669Z,3.00
2022-12-08T12:47:56.318Z,3.00
2022-12-08T12:50:33.108Z,3.00
2022-12-08T12:53:05.944Z,3.00
2022-12-08T12:55:55.886Z,3.00
2022-12-08T12:58:22.533Z,3.00
2022-12-08T13:00:49.324Z,3.00
2022-12-08T13:03:17.365Z,2.90
2022-12-08T13:05:51.823Z,2.90
2022-12-08T13:08:23.372Z,2.90
2022-12-08T13:10:58.197Z,2.90
2022-12-08T13:13:24.937Z,2.80
2022-12-08T13:15:53.972Z,2.90
2022-12-08T13:18:29.078Z,3.00
2022-12-08T13:20:58.842Z,3.00
2022-12-08T13:23:28.898Z,3.00
2022-12-08T13:26:14.295Z,2.90
2022-12-08T13:28:59.380Z,2.90
2022-12-08T13:31:50.401Z,4.90
2022-12-08T13:34:21.298Z,2.90
2022-12-08T13:36:52.099Z,2.80
2022-12-08T13:39:24.698Z,2.80
2022-12-08T13:42:17.942Z,2.80
2022-12-08T13:45:36.234Z,2.70
2022-12-08T13:48:20.895Z,2.70
2022-12-08T13:59:08.227Z,2.70
2022-12-08T14:01:39.737Z,2.60
2022-12-08T14:04:34.095Z,2.60
2022-12-08T14:06:55.638Z,2.60
2022-12-08T14:09:23.584Z,2.50
2022-12-08T14:11:58.350Z,2.50
2022-12-08T14:15:01.152Z,2.50
2022-12-08T14:17:21.924Z,2.50
2022-12-08T14:20:02.927Z,2.50
2022-12-08T14:22:34.006Z,2.50
2022-12-08T14:25:00.684Z,2.40
2022-12-08T14:27:31.956Z,2.40
2022-12-08T14:30:00.499Z,2.40
2022-12-08T14:32:27.068Z,2.40
2022-12-08T14:35:01.275Z,2.30
2022-12-08T14:37:32.526Z,2.30
2022-12-08T14:40:02.068Z,2.30
2022-12-08T14:42:29.246Z,2.40
2022-12-08T14:44:57.730Z,2.30
2022-12-08T14:47:28.409Z,2.30
2022-12-08T14:49:55.066Z,2.30
2022-12-08T14:52:21.824Z,2.30
2022-12-08T14:54:49.992Z,2.20
2022-12-08T14:57:16.658Z,2.20
2022-12-08T14:59:44.168Z,2.10
2022-12-08T15:02:19.429Z,2.20
2022-12-08T15:04:47.904Z,2.10
2022-12-08T15:07:16.011Z,2.10
2022-12-08T15:09:48.678Z,2.10
2022-12-08T15:12:15.445Z,2.00
2022-12-08T15:14:43.284Z,2.00
2022-12-08T15:17:28.916Z,1.90
2022-12-08T15:19:59.862Z,1.90
2022-12-08T15:22:27.382Z,1.90
2022-12-08T15:24:54.342Z,1.90
2022-12-08T15:27:21.676Z,1.80
2022-12-08T15:29:48.331Z,1.80
2022-12-08T15:32:22.964Z,2.80
2022-12-08T15:34:49.935Z,1.80
2022-12-08T15:37:21.711Z,1.80
2022-12-08T15:39:48.689Z,1.80
2022-12-08T15:42:15.532Z,3.50
2022-12-08T15:44:42.474Z,1.70
2022-12-08T15:47:19.809Z,1.70
2022-12-08T15:49:47.323Z,1.70
2022-12-08T15:52:15.508Z,1.70
2022-12-08T15:54:42.244Z,1.60
2022-12-08T15:57:21.549Z,1.60
2022-12-08T15:59:56.593Z,1.50
2022-12-08T16:02:25.148Z,1.50
2022-12-08T16:07:39.513Z,1.40
2022-12-08T16:10:07.488Z,1.30
2022-12-08T16:16:00.905Z,1.20
2022-12-08T16:18:28.661Z,1.10
2022-12-08T16:23:44.117Z,1.00
2022-12-08T16:26:24.425Z,1.00
2022-12-08T16:29:02.300Z,0.90
2022-12-08T16:31:29.153Z,0.90
2022-12-08T16:33:55.889Z,0.90
2022-12-08T16:36:22.548Z,0.80
2022-12-08T16:38:49.123Z,0.70
2022-12-08T16:41:35.685Z,0.60
2022-12-08T16:44:03.292Z,0.60
2022-12-08T16:46:30.160Z,0.50
2022-12-08T16:48:59.618Z,0.40
2022-12-08T16:51:27.402Z,0.40
2022-12-08T16:53:58.565Z,0.30
2022-12-08T16:56:32.281Z,0.30
2022-12-08T16:58:59.918Z,1.20
2022-12-08T17:01:26.567Z,0.40
2022-12-08T17:04:22.467Z,0.30
2022-12-08T17:06:40.110Z,2.10
2022-12-08T17:09:06.813Z,0.40
2022-12-08T17:11:39.179Z,0.40
2022-12-08T17:14:09.152Z,0.30
2022-12-08T17:16:35.880Z,0.30
2022-12-08T17:19:02.825Z,0.30
2022-12-08T17:21:29.644Z,0.30
2022-12-08T17:23:56.284Z,0.30
2022-12-08T17:26:22.984Z,0.30
2022-12-08T17:29:00.480Z,0.40
2022-12-08T17:31:29.967Z,0.40
2022-12-08T17:34:01.240Z,0.50
2022-12-08T17:36:27.922Z,0.50
2022-12-08T17:38:55.045Z,0.50
2022-12-08T17:41:21.711Z,0.50
2022-12-08T17:43:48.343Z,0.60
2022-12-08T17:46:18.638Z,0.50
2022-12-08T17:48:45.333Z,0.40
2022-12-08T17:51:12.134Z,0.30
2022-12-08T17:53:40.666Z,0.70
2022-12-08T17:56:13.900Z,0.30
2022-12-08T17:58:40.553Z,0.40
2022-12-08T18:01:08.185Z,0.40
2022-12-08T18:03:34.817Z,1.40
2022-12-08T18:06:05.455Z,0.40
2022-12-08T18:08:32.163Z,0.40
2022-12-08T18:10:58.782Z,0.40
2022-12-08T18:13:25.513Z,0.40
2022-12-08T18:15:52.183Z,1.50
2022-12-08T18:18:19.910Z,0.30
2022-12-08T18:20:46.771Z,0.30
2022-12-08T18:23:14.038Z,0.30
2022-12-08T18:25:40.733Z,0.30
2022-12-08T18:28:07.426Z,0.80
2022-12-08T18:30:34.105Z,0.30
2022-12-08T18:33:03.337Z,0.40
2022-12-08T18:35:30.151Z,0.40
2022-12-08T18:37:56.904Z,0.40
2022-12-08T18:40:23.538Z,0.40
2022-12-08T18:42:50.307Z,0.30
2022-12-08T18:45:22.688Z,0.40
2022-12-08T18:47:50.437Z,0.30
2022-12-08T18:50:17.566Z,0.20
2022-12-08T18:52:45.193Z,0.20
2022-12-08T18:55:12.170Z,0.10
2022-12-08T18:57:39.764Z,0.10
2022-12-08T19:00:08.162Z,0.00
2022-12-08T19:02:36.258Z,0.00
2022-12-08T19:05:03.160Z,0.00
2022-12-08T19:07:29.858Z,-0.20
2022-12-08T19:09:56.703Z,-0.20
2022-12-08T19:12:23.385Z,-0.30
2022-12-08T19:14:50.086Z,-0.30
2022-12-08T19:17:16.961Z,-0.30
2022-12-08T19:19:43.771Z,-0.40
2022-12-08T19:22:10.511Z,-0.50
2022-12-08T19:24:37.259Z,-0.50
2022-12-08T19:27:04.316Z,-0.60
2022-12-08T19:29:31.276Z,-0.30
2022-12-08T19:31:58.259Z,-0.60
2022-12-08T19:34:24.876Z,-0.60
2022-12-08T19:36:51.682Z,-0.70
2022-12-08T19:39:38.486Z,-0.70
2022-12-08T19:42:34.659Z,-0.70
2022-12-08T19:45:03.206Z,-0.80
2022-12-08T19:47:30.087Z,-0.70
2022-12-08T19:50:16.768Z,-0.80
2022-12-08T19:52:44.509Z,-0.90
2022-12-08T19:55:11.779Z,-0.90
2022-12-08T19:57:38.769Z,-1.00
2022-12-08T20:00:06.191Z,-1.10
2022-12-08T20:02:33.032Z,-1.20
2022-12-08T20:04:59.814Z,-1.20
2022-12-08T20:07:26.588Z,-1.30
2022-12-08T20:09:53.293Z,-1.40
2022-12-08T20:12:19.981Z,-1.40
2022-12-08T20:14:46.679Z,-1.50
2022-12-08T20:17:13.313Z,-1.60
2022-12-08T20:19:40.214Z,-1.70
2022-12-08T20:22:06.899Z,-1.70
2022-12-08T20:24:33.610Z,-1.80
2022-12-08T20:27:00.290Z,-1.90
2022-12-08T20:29:26.952Z,-2.00
2022-12-08T20:31:53.866Z,-2.00
2022-12-08T20:34:20.603Z,-2.00
2022-12-08T20:36:47.317Z,-2.00
2022-12-08T20:39:15.005Z,-2.00
2022-12-08T20:41:42.241Z,-2.10
2022-12-08T20:44:09.340Z,-2.10
2022-12-08T20:46:36.021Z,-2.20
2022-12-08T20:49:04.315Z,-2.20
2022-12-08T20:51:32.255Z,-2.20
2022-12-08T20:53:59.289Z,-2.30
2022-12-08T20:56:26.417Z,-2.30
2022-12-08T20:58:53.354Z,-2.30
2022-12-08T21:01:21.213Z,-2.30
2022-12-08T21:03:48.745Z,-2.30
2022-12-08T21:06:15.768Z,-2.30
2022-12-08T21:08:42.867Z,-2.30
2022-12-08T21:11:09.800Z,-2.30
2022-12-08T21:13:36.997Z,-2.40
2022-12-08T21:16:04.922Z,-2.40
2022-12-08T21:18:37.486Z,-2.50
2022-12-08T21:21:13.990Z,-2.40
2022-12-08T21:23:41.742Z,-2.50
2022-12-08T21:26:13.119Z,-2.50
2022-12-08T21:28:40.058Z,-2.60
2022-12-08T21:31:07.866Z,-2.60
2022-12-08T21:33:35.201Z,-2.60
2022-12-08T21:36:08.784Z,-2.70
2022-12-08T21:38:36.344Z,-2.80
2022-12-08T21:41:07.926Z,-2.80
2022-12-08T21:43:34.808Z,-2.80
2022-12-08T21:46:01.677Z,-2.80
2022-12-08T21:48:28.613Z,-2.80
2022-12-08T21:50:55.290Z,-2.80
2022-12-08T21:53:22.224Z,-2.90
2022-12-08T21:55:49.025Z,-2.90
2022-12-08T21:58:15.858Z,-2.80
2022-12-08T22:00:42.825Z,-2.90
2022-12-08T22:03:12.718Z,-2.90
2022-12-08T22:05:39.820Z,-2.90
2022-12-08T22:08:06.566Z,-2.90
2022-12-08T22:10:33.317Z,-2.90
2022-12-08T22:12:59.989Z,-3.00
2022-12-08T22:15:29.779Z,-3.00
2022-12-08T22:17:56.971Z,-3.00
2022-12-08T22:20:23.792Z,-3.00
2022-12-08T22:22:50.753Z,-3.00
2022-12-08T22:25:17.689Z,-3.00
2022-12-08T22:27:44.518Z,-3.10
2022-12-08T22:30:12.365Z,-3.00
2022-12-08T22:32:39.546Z,-3.10
2022-12-08T22:35:06.587Z,-3.10
2022-12-08T22:37:33.823Z,-3.10
2022-12-08T22:40:00.702Z,-3.10
2022-12-08T22:42:27.785Z,-3.20
2022-12-08T22:44:54.680Z,-3.20
2022-12-08T22:47:21.673Z,-3.20
2022-12-08T22:49:48.526Z,-3.20
2022-12-08T22:52:15.394Z,-3.20
2022-12-08T22:54:42.460Z,-3.20
2022-12-08T22:57:09.196Z,-3.20
2022-12-08T22:59:35.840Z,-3.20
2022-12-08T23:02:02.677Z,-3.20
2022-12-08T23:04:29.500Z,-3.30
2022-12-08T23:06:56.338Z,-3.30
2022-12-08T23:09:23.970Z,-3.40
2022-12-08T23:11:51.024Z,-3.40
2022-12-08T23:14:17.777Z,-3.40
2022-12-08T23:16:44.976Z,-3.50
2022-12-08T23:19:12.037Z,-3.50
2022-12-08T23:21:39.053Z,-3.50
2022-12-08T23:24:05.845Z,-3.50
2022-12-08T23:26:33.172Z,-3.60
2022-12-08T23:29:00.151Z,-3.60
2022-12-08T23:31:27.193Z,-3.60
2022-12-08T23:33:54.273Z,-3.70
2022-12-08T23:36:22.312Z,-3.70
2022-12-08T23:38:49.495Z,-3.70
2022-12-08T23:41:16.590Z,-3.80
2022-12-08T23:43:45.037Z,-3.10
2022-12-08T23:46:12.242Z,-3.70
2022-12-08T23:48:39.165Z,-3.70
2022-12-08T23:51:06.035Z,-3.70
2022-12-08T23:53:33.178Z,-3.70
2022-12-08T23:56:01.309Z,-3.70
2022-12-08T23:58:29.528Z,-3.80
